^^
Station Historical Data
Daily Summary for June 1, 2017 Units:  English    Metric   Both
« Previous Day
Next Day »
Daily Weekly Monthly Yearly Custom
  High: Low: Average:
Temperature: 77.2 °F 57.7 °F 68.4 °F
Dew Point: 61.7 °F 44.6 °F 52.1 °F
Humidity: 92 % 32 % 60 %
Wind Speed: 13.5 mph 0.0 mph 2.1 mph
Wind Gust: 21.9 mph - -
Wind:- - West
Pressure: 29.98 in 29.92 in -
Precipitation: 0.01 in    
Historical Graphs
 
 
Tabular Data for June 1, 2017
Time Temperature Dew Point Pressure Wind Wind Speed Wind Gust Humidity Rainfall Rate (Hourly) solar Conditions
00:03 68.1 °F 61.7 °F 29.94 in Calm   3.5 mph 80 % 0.00 in 0.0 W/m2 RA
00:08 67.8 °F 61.4 °F 29.94 in Calm   3.5 mph 80 % 0.00 in 0.0 W/m2 RA
00:13 67.6 °F 61.2 °F 29.94 in Calm   3.5 mph 80 % 0.00 in 0.0 W/m2 BKN
00:18 67.4 °F 60.7 °F 29.94 in Calm   3.5 mph 79 % 0.00 in 0.0 W/m2 BKN
00:23 67.2 °F 60.1 °F 29.94 in West 0.2 mph 2.3 mph 78 % 0.00 in 0.0 W/m2 BKN
00:28 67.2 °F 59.7 °F 29.94 in Calm   2.3 mph 77 % 0.00 in 0.0 W/m2 BKN
00:33 67.1 °F 58.9 °F 29.95 in NW 0.2 mph 2.3 mph 75 % 0.00 in 0.0 W/m2 BKN
00:38 67.2 °F 57.9 °F 29.95 in Calm   10.4 mph 72 % 0.00 in 0.0 W/m2 BKN
00:43 67.4 °F 57.3 °F 29.96 in West 2.7 mph 10.4 mph 70 % 0.00 in 0.0 W/m2 BKN
00:48 67.5 °F 57.4 °F 29.96 in SW 1.4 mph 6.9 mph 70 % 0.00 in 0.0 W/m2 BKN
00:53 66.9 °F 56.8 °F 29.96 in WSW 2.6 mph 6.9 mph 70 % 0.00 in 0.0 W/m2 BKN
00:58 66.3 °F 56.6 °F 29.96 in Calm   5.8 mph 71 % 0.00 in 0.0 W/m2 RA
01:03 66.0 °F 56.3 °F 29.96 in WSW 2.8 mph 6.9 mph 71 % 0.01 in 0.0 W/m2 RA
01:08 65.8 °F 56.5 °F 29.96 in Calm   6.9 mph 72 % 0.01 in 0.0 W/m2 BKN
01:13 65.4 °F 56.5 °F 29.95 in Calm   3.5 mph 73 % 0.01 in 0.0 W/m2 BKN
01:18 64.9 °F 57.2 °F 29.95 in Calm     76 % 0.01 in 0.0 W/m2 BKN
01:23 64.4 °F 57.4 °F 29.95 in Calm     78 % 0.01 in 0.0 W/m2 BKN
01:28 63.7 °F 57.8 °F 29.95 in Calm     81 % 0.01 in 0.0 W/m2 BKN
01:33 63.4 °F 57.8 °F 29.95 in Calm     82 % 0.01 in 0.0 W/m2 BKN
01:38 63.4 °F 58.1 °F 29.95 in Calm     83 % 0.01 in 0.0 W/m2 BKN
01:43 63.4 °F 57.8 °F 29.95 in Calm   1.2 mph 82 % 0.01 in 0.0 W/m2 BKN
01:48 63.9 °F 58.6 °F 29.95 in Calm   1.2 mph 83 % 0.01 in 0.0 W/m2 BKN
01:53 63.7 °F 58.4 °F 29.95 in Calm     83 % 0.01 in 0.0 W/m2 BKN
01:58 63.2 °F 57.9 °F 29.95 in Calm     83 % 0.00 in 0.0 W/m2 BKN
02:03 63.0 °F 57.8 °F 29.95 in Calm     83 % 0.00 in 0.0 W/m2 OVC
02:08 62.9 °F 57.7 °F 29.95 in Calm     83 % 0.00 in 0.0 W/m2 OVC
02:13 62.6 °F 57.4 °F 29.95 in Calm     83 % 0.00 in 0.0 W/m2 OVC
02:19 62.8 °F 58.2 °F 29.95 in Calm     85 % 0.00 in 0.0 W/m2 OVC
02:24 62.4 °F 57.5 °F 29.95 in Calm     84 % 0.00 in 0.0 W/m2 OVC
02:29 61.9 °F 57.0 °F 29.95 in Calm     84 % 0.00 in 0.0 W/m2 OVC
02:34 61.6 °F 57.0 °F 29.95 in Calm     85 % 0.00 in 0.0 W/m2 OVC
02:39 61.6 °F 57.4 °F 29.95 in Calm     86 % 0.00 in 0.0 W/m2 OVC
02:44 61.0 °F 56.5 °F 29.95 in Calm     85 % 0.00 in 0.0 W/m2 OVC
02:49 60.6 °F 56.4 °F 29.95 in Calm     86 % 0.00 in 0.0 W/m2 OVC
02:54 60.7 °F 56.5 °F 29.95 in Calm     86 % 0.00 in 0.0 W/m2 OVC
02:59 60.4 °F 56.2 °F 29.95 in Calm     86 % 0.00 in 0.0 W/m2 OVC
03:04 60.1 °F 56.2 °F 29.95 in Calm     87 % 0.00 in 0.0 W/m2 SCT
03:09 60.0 °F 56.1 °F 29.94 in Calm     87 % 0.00 in 0.0 W/m2 SCT
03:14 59.8 °F 55.9 °F 29.95 in Calm     87 % 0.00 in 0.0 W/m2 SCT
03:19 59.6 °F 56.0 °F 29.94 in Calm     88 % 0.00 in 0.0 W/m2 SCT
03:24 59.4 °F 55.8 °F 29.94 in Calm     88 % 0.00 in 0.0 W/m2 SCT
03:29 59.4 °F 55.8 °F 29.94 in Calm     88 % 0.00 in 0.0 W/m2 SCT
03:34 59.8 °F 56.6 °F 29.94 in Calm     89 % 0.00 in 0.0 W/m2 SCT
03:39 59.7 °F 56.5 °F 29.94 in Calm     89 % 0.00 in 0.0 W/m2 SCT
03:44 59.5 °F 56.6 °F 29.94 in Calm     90 % 0.00 in 0.0 W/m2 SCT
03:49 59.3 °F 56.4 °F 29.94 in Calm     90 % 0.00 in 0.0 W/m2 SCT
03:54 59.0 °F 56.1 °F 29.94 in Calm     90 % 0.00 in 0.0 W/m2 SCT
03:59 58.8 °F 55.9 °F 29.94 in Calm     90 % 0.00 in 0.0 W/m2 SCT
04:04 58.5 °F 55.6 °F 29.94 in Calm     90 % 0.00 in 0.0 W/m2 CLR
04:09 58.5 °F 55.9 °F 29.94 in Calm     91 % 0.00 in 0.0 W/m2 CLR
04:14 58.4 °F 55.8 °F 29.94 in Calm     91 % 0.00 in 0.0 W/m2 CLR
04:19 58.4 °F 55.8 °F 29.94 in Calm     91 % 0.00 in 0.0 W/m2 CLR
04:24 58.7 °F 56.1 °F 29.94 in Calm     91 % 0.00 in 0.0 W/m2 CLR
04:29 58.3 °F 55.7 °F 29.94 in Calm     91 % 0.00 in 0.0 W/m2 CLR
04:34 58.2 °F 55.6 °F 29.94 in Calm     91 % 0.00 in 0.0 W/m2 CLR
04:40 58.2 °F 55.6 °F 29.95 in Calm     91 % 0.00 in 0.0 W/m2 CLR
04:45 58.1 °F 55.5 °F 29.95 in Calm     91 % 0.00 in 0.0 W/m2 CLR
04:50 58.1 °F 55.8 °F 29.95 in Calm     92 % 0.00 in 0.0 W/m2 CLR
04:55 58.1 °F 55.8 °F 29.95 in Calm     92 % 0.00 in 0.0 W/m2 CLR
05:00 58.0 °F 55.7 °F 29.95 in Calm     92 % 0.00 in 0.0 W/m2 CLR
05:05 57.7 °F 55.4 °F 29.95 in Calm     92 % 0.00 in 0.0 W/m2 CLR
05:10 57.7 °F 55.4 °F 29.95 in Calm     92 % 0.00 in 0.0 W/m2 CLR
05:15 57.9 °F 55.6 °F 29.95 in Calm     92 % 0.00 in 0.0 W/m2 CLR
05:20 58.0 °F 55.7 °F 29.96 in Calm     92 % 0.00 in 0.0 W/m2 CLR
05:25 57.9 °F 55.6 °F 29.96 in Calm   1.2 mph 92 % 0.00 in 0.0 W/m2 CLR
05:30 57.9 °F 55.6 °F 29.97 in Calm   1.2 mph 92 % 0.00 in 0.0 W/m2 CLR
05:35 57.8 °F 55.5 °F 29.96 in Calm   1.2 mph 92 % 0.00 in 0.0 W/m2 CLR
05:40 58.0 °F 55.7 °F 29.96 in Calm     92 % 0.00 in 0.0 W/m2 CLR
05:45 58.0 °F 55.7 °F 29.96 in Calm     92 % 0.00 in 0.0 W/m2 CLR
05:50 58.2 °F 55.9 °F 29.96 in Calm     92 % 0.00 in 5.0 W/m2 CLR
05:55 58.4 °F 56.1 °F 29.95 in Calm     92 % 0.00 in 5.0 W/m2 CLR
06:00 58.2 °F 55.9 °F 29.95 in Calm   1.2 mph 92 % 0.00 in 9.0 W/m2 CLR
06:05 57.9 °F 55.3 °F 29.95 in Calm   1.2 mph 91 % 0.00 in 19.0 W/m2 OVC
06:10 57.8 °F 55.5 °F 29.96 in Calm     92 % 0.00 in 30.0 W/m2 OVC
06:15 57.9 °F 55.6 °F 29.96 in Calm     92 % 0.00 in 16.0 W/m2 OVC
06:20 58.0 °F 55.7 °F 29.96 in Calm     92 % 0.00 in 21.0 W/m2 OVC
06:25 58.0 °F 55.4 °F 29.96 in Calm     91 % 0.00 in 25.0 W/m2 OVC
06:30 57.9 °F 55.3 °F 29.97 in Calm     91 % 0.00 in 28.0 W/m2 OVC
06:35 58.0 °F 55.4 °F 29.96 in Calm     91 % 0.00 in 35.0 W/m2 OVC
06:40 58.0 °F 55.4 °F 29.96 in Calm     91 % 0.00 in 37.0 W/m2 OVC
06:45 58.2 °F 55.6 °F 29.97 in Calm     91 % 0.00 in 44.0 W/m2 OVC
06:50 58.4 °F 55.8 °F 29.97 in Calm     91 % 0.00 in 26.0 W/m2 OVC
06:55 58.6 °F 55.7 °F 29.97 in Calm     90 % 0.00 in 46.0 W/m2 OVC
07:00 58.8 °F 55.9 °F 29.97 in Calm     90 % 0.00 in 65.0 W/m2 OVC
07:05 58.9 °F 56.0 °F 29.97 in Calm   1.2 mph 90 % 0.00 in 79.0 W/m2 OVC
07:10 59.3 °F 56.4 °F 29.97 in Calm   3.5 mph 90 % 0.00 in 74.0 W/m2 OVC
07:15 59.4 °F 56.5 °F 29.97 in Calm   3.5 mph 90 % 0.00 in 40.0 W/m2 OVC
07:20 59.5 °F 56.3 °F 29.97 in Calm   1.2 mph 89 % 0.00 in 33.0 W/m2 OVC
07:25 59.6 °F 56.4 °F 29.97 in Calm   1.2 mph 89 % 0.00 in 33.0 W/m2 OVC
07:30 59.5 °F 56.3 °F 29.97 in SSW 0.1 mph   89 % 0.00 in 32.0 W/m2 OVC
07:35 59.8 °F 56.6 °F 29.97 in Calm   1.2 mph 89 % 0.00 in 33.0 W/m2 OVC
07:40 60.2 °F 56.6 °F 29.97 in SSW 0.5 mph 2.3 mph 88 % 0.00 in 37.0 W/m2 OVC
07:45 60.7 °F 56.8 °F 29.98 in SW 0.4 mph 3.5 mph 87 % 0.00 in 33.0 W/m2 OVC
07:50 61.3 °F 57.1 °F 29.97 in Calm   5.8 mph 86 % 0.00 in 35.0 W/m2 OVC
07:55 61.9 °F 57.0 °F 29.97 in WSW 0.1 mph 6.9 mph 84 % 0.00 in 35.0 W/m2 OVC
08:00 62.4 °F 56.8 °F 29.97 in SW 0.7 mph 6.9 mph 82 % 0.00 in 35.0 W/m2 OVC
08:05 63.0 °F 57.1 °F 29.98 in West 3.5 mph 6.9 mph 81 % 0.00 in 35.0 W/m2 FEW
08:10 63.3 °F 56.7 °F 29.98 in WSW 0.8 mph 6.9 mph 79 % 0.00 in 37.0 W/m2 FEW
08:13 63.6 °F 57.0 °F 29.97 in SW 2.6 mph 6.9 mph 79 % 0.00 in 37.0 W/m2 FEW
08:18 63.8 °F 56.8 °F 29.97 in WSW 2.5 mph 6.9 mph 78 % 0.00 in 39.0 W/m2 FEW
08:23 63.9 °F 56.5 °F 29.97 in West 1.4 mph 8.1 mph 77 % 0.00 in 39.0 W/m2 FEW
08:28 64.3 °F 56.9 °F 29.98 in SSW 0.7 mph 8.1 mph 77 % 0.00 in 40.0 W/m2 FEW
08:33 64.7 °F 57.0 °F 29.98 in SSW 1.6 mph 8.1 mph 76 % 0.00 in 47.0 W/m2 FEW
08:38 65.0 °F 57.2 °F 29.98 in Calm   4.6 mph 76 % 0.00 in 49.0 W/m2 FEW
08:43 65.0 °F 55.8 °F 29.98 in WSW 2.2 mph 9.2 mph 72 % 0.00 in 40.0 W/m2 FEW
08:48 65.2 °F 55.2 °F 29.98 in West 2.4 mph 11.5 mph 70 % 0.00 in 42.0 W/m2 FEW
08:53 65.5 °F 55.5 °F 29.98 in WNW 1.3 mph 11.5 mph 70 % 0.00 in 53.0 W/m2 FEW
08:58 66.0 °F 55.5 °F 29.98 in SW 0.6 mph 11.5 mph 69 % 0.00 in 76.0 W/m2 FEW
09:03 66.6 °F 56.1 °F 29.98 in SSW 2.8 mph 9.2 mph 69 % 0.00 in 158.0 W/m2 CLR
09:08 66.8 °F 55.9 °F 29.98 in WSW 1.5 mph 8.1 mph 68 % 0.00 in 610.0 W/m2 CLR
09:13 67.3 °F 56.0 °F 29.98 in WNW 3.1 mph 8.1 mph 67 % 0.00 in 624.0 W/m2 CLR
09:14 67.3 °F 55.1 °F 29.98 in WSW 3.7 mph 8.1 mph 65 % 0.00 in 626.0 W/m2 CLR
09:19 67.5 °F 55.3 °F 29.98 in WSW 0.5 mph 9.2 mph 65 % 0.00 in 640.0 W/m2 CLR
09:24 67.9 °F 56.1 °F 29.98 in West 1.8 mph 10.4 mph 66 % 0.00 in 656.0 W/m2 CLR
09:29 68.0 °F 56.2 °F 29.98 in West 1.9 mph 10.4 mph 66 % 0.00 in 670.0 W/m2 CLR
09:34 68.1 °F 55.9 °F 29.98 in WNW 4.6 mph 9.2 mph 65 % 0.00 in 687.0 W/m2 CLR
09:39 68.4 °F 56.2 °F 29.97 in WSW 0.3 mph 8.1 mph 65 % 0.00 in 701.0 W/m2 CLR
09:40 68.5 °F 56.3 °F 29.97 in West 2.3 mph 8.1 mph 65 % 0.00 in 703.0 W/m2 CLR
09:45 68.7 °F 56.5 °F 29.97 in WSW 4.0 mph 8.1 mph 65 % 0.00 in 719.0 W/m2 CLR
09:50 68.9 °F 56.6 °F 29.97 in WNW 2.2 mph 8.1 mph 65 % 0.00 in 731.0 W/m2 CLR
09:55 69.0 °F 55.9 °F 29.96 in SW 0.9 mph 8.1 mph 63 % 0.00 in 744.0 W/m2 CLR
10:00 69.1 °F 56.4 °F 29.96 in WSW 1.8 mph 9.2 mph 64 % 0.00 in 759.0 W/m2 CLR
10:05 69.8 °F 56.2 °F 29.96 in West 3.8 mph 9.2 mph 62 % 0.00 in 772.0 W/m2 CLR
10:10 69.8 °F 56.6 °F 29.96 in West 0.8 mph 8.1 mph 63 % 0.00 in 780.0 W/m2 CLR
10:15 70.3 °F 57.1 °F 29.96 in SW 2.0 mph 8.1 mph 63 % 0.00 in 791.0 W/m2 CLR
10:20 70.4 °F 56.8 °F 29.96 in WSW 1.9 mph 8.1 mph 62 % 0.00 in 807.0 W/m2 CLR
10:25 71.1 °F 57.0 °F 29.96 in NW 0.6 mph 9.2 mph 61 % 0.00 in 817.0 W/m2 CLR
10:30 71.0 °F 56.4 °F 29.96 in WSW 5.9 mph 10.4 mph 60 % 0.00 in 833.0 W/m2 CLR
10:35 70.8 °F 56.7 °F 29.96 in West 5.5 mph 11.5 mph 61 % 0.00 in 840.0 W/m2 CLR
10:40 71.2 °F 57.1 °F 29.96 in West 2.6 mph 11.5 mph 61 % 0.00 in 844.0 W/m2 CLR
10:45 71.9 °F 57.3 °F 29.96 in SW 2.4 mph 11.5 mph 60 % 0.00 in 860.0 W/m2 CLR
10:50 72.2 °F 56.1 °F 29.96 in SSW 5.2 mph 10.4 mph 57 % 0.00 in 877.0 W/m2 CLR
10:55 72.1 °F 56.0 °F 29.96 in SSW 4.3 mph 11.5 mph 57 % 0.00 in 882.0 W/m2 CLR
11:00 72.3 °F 56.2 °F 29.96 in WSW 3.1 mph 11.5 mph 57 % 0.00 in 902.0 W/m2 CLR
11:05 72.8 °F 56.2 °F 29.96 in WSW 2.2 mph 10.4 mph 56 % 0.00 in 970.0 W/m2 CLR
11:10 72.9 °F 56.3 °F 29.96 in WSW 1.8 mph 11.5 mph 56 % 0.00 in 121.0 W/m2 CLR
11:15 73.7 °F 53.3 °F 29.95 in NW 3.0 mph 11.5 mph 49 % 0.00 in 1056.0 W/m2 CLR
11:16 73.9 °F 53.5 °F 29.96 in SSW 2.4 mph 11.5 mph 49 % 0.00 in 1056.0 W/m2 CLR
11:21 74.0 °F 52.5 °F 29.96 in WSW 6.3 mph 15.0 mph 47 % 0.00 in 1030.0 W/m2 CLR
11:26 73.9 °F 50.0 °F 29.96 in WSW 7.0 mph 15.0 mph 43 % 0.00 in 1034.0 W/m2 CLR
11:31 74.5 °F 48.6 °F 29.96 in West 6.7 mph 17.3 mph 40 % 0.00 in 1023.0 W/m2 CLR
11:36 76.0 °F 47.8 °F 29.96 in WNW 5.3 mph 19.6 mph 37 % 0.00 in 974.0 W/m2 CLR
11:41 75.8 °F 48.4 °F 29.96 in SW 9.1 mph 19.6 mph 38 % 0.00 in 1041.0 W/m2 CLR
11:46 75.2 °F 48.5 °F 29.96 in West 9.1 mph 19.6 mph 39 % 0.00 in 1023.0 W/m2 CLR
11:51 75.2 °F 49.9 °F 29.96 in SW 7.0 mph 19.6 mph 41 % 0.00 in 984.0 W/m2 CLR
11:56 75.4 °F 50.1 °F 29.95 in SSW 5.7 mph 20.7 mph 41 % 0.00 in 983.0 W/m2 CLR
12:01 75.6 °F 48.9 °F 29.95 in West 9.7 mph 20.7 mph 39 % 0.00 in 983.0 W/m2 FEW
12:06 76.4 °F 50.3 °F 29.95 in SW 2.5 mph 17.3 mph 40 % 0.00 in 991.0 W/m2 FEW
12:11 75.6 °F 50.2 °F 29.95 in WNW 2.2 mph 17.3 mph 41 % 0.00 in 986.0 W/m2 FEW
12:16 75.8 °F 49.8 °F 29.95 in NW 4.0 mph 15.0 mph 40 % 0.00 in 1042.0 W/m2 FEW
12:21 75.6 °F 50.2 °F 29.95 in West 4.9 mph 15.0 mph 41 % 0.00 in 1039.0 W/m2 FEW
12:26 75.9 °F 49.2 °F 29.95 in West 2.7 mph 18.4 mph 39 % 0.00 in 1005.0 W/m2 FEW
12:31 75.7 °F 49.7 °F 29.95 in West 2.4 mph 18.4 mph 40 % 0.00 in 1025.0 W/m2 FEW
12:36 76.0 °F 49.2 °F 29.95 in NNW 5.5 mph 17.3 mph 39 % 0.00 in 1055.0 W/m2 FEW
12:41 76.3 °F 48.8 °F 29.95 in NW 9.0 mph 17.3 mph 38 % 0.00 in 1069.0 W/m2 FEW
12:46 76.2 °F 50.1 °F 29.95 in WSW 4.7 mph 17.3 mph 40 % 0.00 in 1102.0 W/m2 FEW
12:51 76.0 °F 50.6 °F 29.94 in NW 1.3 mph 17.3 mph 41 % 0.00 in 1062.0 W/m2 FEW
12:56 76.0 °F 49.2 °F 29.95 in West 6.1 mph 16.1 mph 39 % 0.00 in 1076.0 W/m2 FEW
13:01 76.4 °F 50.3 °F 29.95 in SW 4.6 mph 17.3 mph 40 % 0.00 in 1078.0 W/m2 SCT
13:06 76.8 °F 50.0 °F 29.94 in WNW 4.3 mph 17.3 mph 39 % 0.00 in 1081.0 W/m2 SCT
13:11 76.6 °F 50.5 °F 29.94 in SW 0.3 mph 16.1 mph 40 % 0.00 in 1025.0 W/m2 SCT
13:16 76.2 °F 48.7 °F 29.94 in SSW 8.5 mph 18.4 mph 38 % 0.00 in 1063.0 W/m2 SCT
13:21 76.0 °F 48.6 °F 29.94 in SW 3.0 mph 19.6 mph 38 % 0.00 in 1116.0 W/m2 SCT
13:26 76.7 °F 50.6 °F 29.94 in NW 5.7 mph 19.6 mph 40 % 0.00 in 202.0 W/m2 SCT
13:31 76.1 °F 51.3 °F 29.94 in SW 1.5 mph 19.6 mph 42 % 0.00 in 207.0 W/m2 SCT
13:36 76.0 °F 51.9 °F 29.94 in NNW 9.1 mph 19.6 mph 43 % 0.00 in 1088.0 W/m2 SCT
13:41 76.3 °F 52.2 °F 29.94 in NNW 4.4 mph 16.1 mph 43 % 0.00 in 1136.0 W/m2 SCT
13:42 76.3 °F 52.2 °F 29.94 in NNW 4.4 mph 16.1 mph 43 % 0.00 in 1136.0 W/m2 SCT
13:47 76.7 °F 49.9 °F 29.94 in WSW 7.0 mph 20.7 mph 39 % 0.00 in 1144.0 W/m2 SCT
13:52 76.2 °F 51.4 °F 29.94 in WNW 9.2 mph 20.7 mph 42 % 0.00 in 162.0 W/m2 SCT
13:57 76.3 °F 51.5 °F 29.94 in NNW 9.0 mph 20.7 mph 42 % 0.00 in 1032.0 W/m2 SCT
14:02 76.6 °F 50.5 °F 29.94 in West 6.8 mph 19.6 mph 40 % 0.00 in 998.0 W/m2 FEW
14:07 76.1 °F 50.7 °F 29.94 in WSW 5.3 mph 19.6 mph 41 % 0.00 in 1014.0 W/m2 FEW
14:12 76.1 °F 49.3 °F 29.94 in WNW 5.4 mph 17.3 mph 39 % 0.00 in 1074.0 W/m2 FEW
14:17 76.2 °F 50.8 °F 29.94 in WNW 9.6 mph 17.3 mph 41 % 0.00 in 1037.0 W/m2 FEW
14:22 76.6 °F 51.1 °F 29.94 in North 6.3 mph 17.3 mph 41 % 0.00 in 779.0 W/m2 FEW
14:27 76.5 °F 49.7 °F 29.94 in West 1.9 mph 17.3 mph 39 % 0.00 in 216.0 W/m2 FEW
14:32 76.2 °F 48.7 °F 29.94 in WSW 6.5 mph 18.4 mph 38 % 0.00 in 991.0 W/m2 FEW
14:37 76.2 °F 49.4 °F 29.94 in NNW 4.1 mph 18.4 mph 39 % 0.00 in 169.0 W/m2 FEW
14:42 76.6 °F 49.1 °F 29.94 in NW 8.8 mph 18.4 mph 38 % 0.00 in 967.0 W/m2 FEW
14:47 76.9 °F 49.4 °F 29.94 in West 2.1 mph 17.3 mph 38 % 0.00 in 977.0 W/m2 FEW
14:52 76.4 °F 48.9 °F 29.94 in West 6.9 mph 17.3 mph 38 % 0.00 in 969.0 W/m2 FEW
14:57 77.2 °F 48.9 °F 29.94 in West 12.0 mph 19.6 mph 37 % 0.00 in 935.0 W/m2 FEW
15:02 76.6 °F 49.1 °F 29.94 in WNW 5.4 mph 19.6 mph 38 % 0.00 in 229.0 W/m2 FEW
15:07 76.4 °F 48.2 °F 29.94 in NNW 13.5 mph 19.6 mph 37 % 0.00 in 127.0 W/m2 FEW
15:12 75.5 °F 48.1 °F 29.94 in NW 6.4 mph 18.4 mph 38 % 0.00 in 958.0 W/m2 FEW
15:17 75.8 °F 48.4 °F 29.94 in WNW 9.7 mph 18.4 mph 38 % 0.00 in 995.0 W/m2 FEW
15:22 76.2 °F 49.4 °F 29.94 in NNW 10.0 mph 17.3 mph 39 % 0.00 in 942.0 W/m2 FEW
15:27 76.5 °F 49.0 °F 29.94 in West 6.2 mph 20.7 mph 38 % 0.00 in 870.0 W/m2 FEW
15:32 76.4 °F 47.5 °F 29.94 in SSW 2.1 mph 20.7 mph 36 % 0.00 in 172.0 W/m2 FEW
15:37 76.4 °F 48.9 °F 29.94 in NNW 7.6 mph 17.3 mph 38 % 0.00 in 837.0 W/m2 FEW
15:42 76.8 °F 49.3 °F 29.94 in NW 12.4 mph 17.3 mph 38 % 0.00 in 840.0 W/m2 FEW
15:43 76.7 °F 48.5 °F 29.94 in NW 6.1 mph 20.7 mph 37 % 0.00 in 846.0 W/m2 FEW
15:48 76.6 °F 48.4 °F 29.94 in WNW 3.6 mph 20.7 mph 37 % 0.00 in 809.0 W/m2 FEW
15:54 76.4 °F 46.7 °F 29.94 in NW 4.1 mph 20.7 mph 35 % 0.00 in 831.0 W/m2 FEW
15:59 76.2 °F 46.5 °F 29.94 in WNW 3.4 mph 16.1 mph 35 % 0.00 in 795.0 W/m2 FEW
16:04 77.0 °F 47.2 °F 29.94 in NNW 7.0 mph 16.1 mph 35 % 0.00 in 773.0 W/m2 FEW
16:09 77.1 °F 47.3 °F 29.94 in West 9.6 mph 17.3 mph 35 % 0.00 in 745.0 W/m2 FEW
16:14 76.9 °F 47.2 °F 29.94 in WNW 2.1 mph 17.3 mph 35 % 0.00 in 733.0 W/m2 FEW
16:19 76.8 °F 46.3 °F 29.94 in SW 3.0 mph 16.1 mph 34 % 0.00 in 721.0 W/m2 FEW
16:24 76.8 °F 45.5 °F 29.94 in NW 10.8 mph 20.7 mph 33 % 0.00 in 710.0 W/m2 FEW
16:29 76.5 °F 45.2 °F 29.94 in NW 1.1 mph 20.7 mph 33 % 0.00 in 687.0 W/m2 FEW
16:34 76.8 °F 45.5 °F 29.94 in SW 2.9 mph 19.6 mph 33 % 0.00 in 666.0 W/m2 FEW
16:39 76.5 °F 45.2 °F 29.93 in NNW 6.7 mph 13.8 mph 33 % 0.00 in 647.0 W/m2 FEW
16:44 76.8 °F 44.7 °F 29.93 in NW 9.2 mph 20.7 mph 32 % 0.00 in 642.0 W/m2 FEW
16:49 76.9 °F 45.6 °F 29.93 in West 9.9 mph 20.7 mph 33 % 0.00 in 631.0 W/m2 FEW
16:54 76.7 °F 45.4 °F 29.93 in WSW 1.7 mph 20.7 mph 33 % 0.00 in 608.0 W/m2 FEW
16:59 76.7 °F 44.6 °F 29.93 in NW 7.3 mph 20.7 mph 32 % 0.00 in 596.0 W/m2 FEW
17:04 77.0 °F 46.5 °F 29.93 in West 0.6 mph 17.3 mph 34 % 0.00 in 575.0 W/m2 CLR
17:09 77.0 °F 45.7 °F 29.93 in NW 2.2 mph 21.9 mph 33 % 0.00 in 563.0 W/m2 CLR
17:14 76.4 °F 45.2 °F 29.93 in WNW 6.0 mph 21.9 mph 33 % 0.00 in 541.0 W/m2 CLR
17:19 76.6 °F 45.3 °F 29.93 in WNW 8.7 mph 17.3 mph 33 % 0.00 in 526.0 W/m2 CLR
17:24 76.6 °F 46.1 °F 29.93 in NW 1.9 mph 17.3 mph 34 % 0.00 in 508.0 W/m2 CLR
17:29 76.5 °F 45.2 °F 29.93 in West 3.8 mph 17.3 mph 33 % 0.00 in 494.0 W/m2 CLR
17:34 76.2 °F 45.8 °F 29.93 in West 0.9 mph 17.3 mph 34 % 0.00 in 476.0 W/m2 CLR
17:39 76.1 °F 44.9 °F 29.93 in SW 2.4 mph 16.1 mph 33 % 0.00 in 461.0 W/m2 CLR
17:44 76.2 °F 45.8 °F 29.93 in NW 8.1 mph 16.1 mph 34 % 0.00 in 439.0 W/m2 CLR
17:49 76.1 °F 45.7 °F 29.92 in WSW 1.9 mph 15.0 mph 34 % 0.00 in 425.0 W/m2 CLR
17:54 76.2 °F 45.8 °F 29.92 in NW 2.2 mph 15.0 mph 34 % 0.00 in 404.0 W/m2 CLR
17:59 76.4 °F 45.9 °F 29.92 in WSW 3.6 mph 11.5 mph 34 % 0.00 in 390.0 W/m2 CLR
18:04 76.3 °F 45.9 °F 29.92 in WNW 1.2 mph 13.8 mph 34 % 0.00 in 367.0 W/m2 CLR
18:09 76.0 °F 46.4 °F 29.92 in WNW 0.9 mph 13.8 mph 35 % 0.00 in 353.0 W/m2 CLR
18:14 76.2 °F 46.5 °F 29.92 in WSW 3.4 mph 12.7 mph 35 % 0.00 in 339.0 W/m2 CLR
18:19 75.7 °F 45.3 °F 29.92 in SW 0.7 mph 12.7 mph 34 % 0.00 in 322.0 W/m2 CLR
18:24 75.6 °F 46.8 °F 29.92 in SW 0.6 mph 12.7 mph 36 % 0.00 in 302.0 W/m2 CLR
18:29 75.4 °F 46.6 °F 29.92 in NW 3.0 mph 11.5 mph 36 % 0.00 in 290.0 W/m2 CLR
18:34 75.5 °F 46.7 °F 29.92 in West 0.1 mph 11.5 mph 36 % 0.00 in 271.0 W/m2 CLR
18:39 75.5 °F 45.9 °F 29.92 in West 6.8 mph 12.7 mph 35 % 0.00 in 251.0 W/m2 CLR
18:44 75.1 °F 46.3 °F 29.92 in WSW 2.3 mph 12.7 mph 36 % 0.00 in 236.0 W/m2 CLR
18:49 75.0 °F 47.0 °F 29.93 in West 0.5 mph 12.7 mph 37 % 0.00 in 214.0 W/m2 CLR
18:55 74.9 °F 47.6 °F 29.93 in WNW 0.9 mph 10.4 mph 38 % 0.00 in 192.0 W/m2 CLR
19:00 74.9 °F 46.9 °F 29.93 in WNW 1.0 mph 8.1 mph 37 % 0.00 in 171.0 W/m2 CLR
19:05 74.5 °F 46.5 °F 29.92 in West 2.0 mph 12.0 mph 37 % 0.00 in 151.0 W/m2 CLR
19:10 74.3 °F 47.0 °F 29.92 in WSW 6.7 mph 11.5 mph 38 % 0.00 in 135.0 W/m2 CLR
19:15 74.0 °F 46.8 °F 29.92 in WSW 0.2 mph 15.0 mph 38 % 0.00 in 118.0 W/m2 CLR
19:20 73.7 °F 47.2 °F 29.92 in Calm   15.0 mph 39 % 0.00 in 100.0 W/m2 CLR
19:25 73.5 °F 47.7 °F 29.93 in SW 0.3 mph 6.9 mph 40 % 0.00 in 86.0 W/m2 CLR
19:30 73.2 °F 47.4 °F 29.93 in WSW 0.1 mph 6.9 mph 40 % 0.00 in 39.0 W/m2 CLR
19:35 73.1 °F 48.0 °F 29.93 in Calm   5.8 mph 41 % 0.00 in 35.0 W/m2 CLR
19:40 72.9 °F 47.8 °F 29.93 in Calm   3.5 mph 41 % 0.00 in 33.0 W/m2 CLR
19:45 72.6 °F 48.2 °F 29.93 in Calm   8.1 mph 42 % 0.00 in 30.0 W/m2 CLR
19:50 72.4 °F 48.0 °F 29.93 in WSW 0.1 mph 8.1 mph 42 % 0.00 in 28.0 W/m2 CLR
19:55 72.2 °F 47.8 °F 29.93 in Calm   5.8 mph 42 % 0.00 in 25.0 W/m2 CLR
20:00 72.0 °F 48.3 °F 29.93 in SW 1.5 mph 6.9 mph 43 % 0.00 in 21.0 W/m2 CLR
20:05 71.8 °F 48.1 °F 29.93 in Calm   6.9 mph 43 % 0.00 in 18.0 W/m2 CLR
20:06 71.8 °F 48.1 °F 29.93 in Calm   6.9 mph 43 % 0.00 in 18.0 W/m2 CLR
20:11 71.5 °F 48.4 °F 29.93 in Calm   3.5 mph 44 % 0.00 in 14.0 W/m2 CLR
20:16 71.3 °F 48.9 °F 29.93 in Calm   1.2 mph 45 % 0.00 in 9.0 W/m2 CLR
20:21 70.9 °F 48.5 °F 29.93 in Calm   1.2 mph 45 % 0.00 in 5.0 W/m2 CLR
20:26 70.8 °F 49.0 °F 29.94 in Calm     46 % 0.00 in 0.0 W/m2 CLR
20:31 70.4 °F 48.6 °F 29.93 in Calm     46 % 0.00 in 0.0 W/m2 CLR
20:32 70.4 °F 48.6 °F 29.93 in Calm     46 % 0.00 in 0.0 W/m2 CLR
20:37 70.0 °F 48.3 °F 29.93 in Calm     46 % 0.00 in 0.0 W/m2 CLR
20:42 69.9 °F 48.2 °F 29.93 in WSW 0.2 mph 2.3 mph 46 % 0.00 in 0.0 W/m2 CLR
20:47 69.6 °F 47.9 °F 29.93 in Calm   2.3 mph 46 % 0.00 in 0.0 W/m2 CLR
20:52 69.3 °F 48.2 °F 29.93 in Calm   2.3 mph 47 % 0.00 in 0.0 W/m2 CLR
20:57 69.1 °F 48.0 °F 29.93 in Calm   2.3 mph 47 % 0.00 in 0.0 W/m2 CLR
21:02 68.9 °F 48.4 °F 29.93 in Calm   2.3 mph 48 % 0.00 in 0.0 W/m2 CLR
21:07 68.6 °F 48.1 °F 29.94 in Calm     48 % 0.00 in 0.0 W/m2 CLR
21:12 68.4 °F 47.9 °F 29.94 in Calm     48 % 0.00 in 0.0 W/m2 CLR
21:22 68.0 °F 48.7 °F 29.94 in Calm   2.3 mph 50 % 0.00 in 0.0 W/m2 CLR
21:27 67.7 °F 48.4 °F 29.94 in WSW 0.1 mph 2.3 mph 50 % 0.00 in 0.0 W/m2 CLR
21:32 67.4 °F 48.6 °F 29.94 in Calm   1.2 mph 51 % 0.00 in 0.0 W/m2 CLR
21:37 67.1 °F 48.4 °F 29.95 in Calm   1.2 mph 51 % 0.00 in 0.0 W/m2 CLR
21:42 66.9 °F 48.7 °F 29.95 in Calm   1.2 mph 52 % 0.00 in 0.0 W/m2 CLR
21:47 66.7 °F 48.5 °F 29.95 in Calm   2.3 mph 52 % 0.00 in 0.0 W/m2 CLR
21:52 66.6 °F 48.4 °F 29.95 in Calm   2.3 mph 52 % 0.00 in 0.0 W/m2 CLR
21:57 66.4 °F 48.2 °F 29.96 in Calm   1.2 mph 52 % 0.00 in 0.0 W/m2 CLR
22:02 66.2 °F 48.6 °F 29.96 in Calm   1.2 mph 53 % 0.00 in 0.0 W/m2 CLR
22:07 66.0 °F 48.4 °F 29.96 in Calm     53 % 0.00 in 0.0 W/m2 CLR
22:12 66.0 °F 48.4 °F 29.96 in SW 0.3 mph 2.3 mph 53 % 0.00 in 0.0 W/m2 CLR
22:18 65.9 °F 48.3 °F 29.96 in SW 0.1 mph 3.5 mph 53 % 0.00 in 0.0 W/m2 CLR
22:23 65.7 °F 48.6 °F 29.96 in SW 0.2 mph 3.5 mph 54 % 0.00 in 0.0 W/m2 CLR
22:28 65.6 °F 48.5 °F 29.96 in Calm   3.5 mph 54 % 0.00 in 0.0 W/m2 CLR
22:33 65.6 °F 48.5 °F 29.96 in Calm   2.3 mph 54 % 0.00 in 0.0 W/m2 CLR
22:38 65.5 °F 48.4 °F 29.96 in SW 0.1 mph 3.5 mph 54 % 0.00 in 0.0 W/m2 CLR
22:43 65.5 °F 48.4 °F 29.96 in WSW 0.1 mph 3.5 mph 54 % 0.00 in 0.0 W/m2 CLR
22:48 65.4 °F 48.3 °F 29.96 in Calm   2.3 mph 54 % 0.00 in 0.0 W/m2 CLR
22:53 65.4 °F 48.3 °F 29.96 in WSW 0.1 mph 2.3 mph 54 % 0.00 in 0.0 W/m2 CLR
22:58 65.4 °F 48.3 °F 29.96 in Calm   5.8 mph 54 % 0.00 in 0.0 W/m2 CLR
23:03 65.4 °F 48.3 °F 29.96 in WSW 1.0 mph 8.1 mph 54 % 0.00 in 0.0 W/m2 CLR
23:08 65.4 °F 48.3 °F 29.96 in SW 1.3 mph 8.1 mph 54 % 0.00 in 0.0 W/m2 CLR
23:13 65.2 °F 48.6 °F 29.96 in SW 0.3 mph 5.8 mph 55 % 0.00 in 0.0 W/m2 CLR
23:18 65.1 °F 48.5 °F 29.96 in SW 0.9 mph 5.8 mph 55 % 0.00 in 0.0 W/m2 CLR
23:23 64.9 °F 48.3 °F 29.96 in Calm   5.8 mph 55 % 0.00 in 0.0 W/m2 CLR
23:28 64.7 °F 48.2 °F 29.96 in WSW 0.8 mph 5.8 mph 55 % 0.00 in 0.0 W/m2 CLR
23:33 64.5 °F 48.4 °F 29.96 in SW 0.8 mph 4.6 mph 56 % 0.00 in 0.0 W/m2 CLR
23:38 64.2 °F 48.2 °F 29.97 in SW 0.8 mph 5.8 mph 56 % 0.00 in 0.0 W/m2 CLR
23:43 64.0 °F 48.5 °F 29.97 in Calm   5.8 mph 57 % 0.00 in 0.0 W/m2 CLR
23:48 63.8 °F 48.3 °F 29.97 in Calm   5.8 mph 57 % 0.00 in 0.0 W/m2 CLR
23:53 63.6 °F 48.5 °F 29.97 in WSW 0.1 mph 5.8 mph 58 % 0.00 in 0.0 W/m2 CLR
23:58 63.5 °F 48.5 °F 29.97 in NW 0.1 mph 5.8 mph 58 % 0.00 in 0.0 W/m2 CLR
Air Products Campus Weather
Compliments of Weather Underground - 3.5 mb